createdAt,value
2022-09-06T00:01:47.589Z,2.97
2022-09-06T00:04:17.884Z,2.63
2022-09-06T00:06:48.074Z,2.45
2022-09-06T00:09:19.330Z,2.70
2022-09-06T00:11:49.491Z,3.40
2022-09-06T00:14:19.654Z,2.90
2022-09-06T00:16:49.563Z,3.17
2022-09-06T00:19:19.407Z,3.13
2022-09-06T00:21:49.335Z,3.33
2022-09-06T00:24:20.820Z,2.90
2022-09-06T00:26:50.726Z,2.55
2022-09-06T00:29:20.688Z,2.53
2022-09-06T00:31:50.881Z,2.72
2022-09-06T00:34:20.884Z,2.42
2022-09-06T00:36:50.829Z,3.35
2022-09-06T00:39:22.160Z,2.83
2022-09-06T00:41:52.542Z,3.22
2022-09-06T00:44:22.543Z,3.03
2022-09-06T00:46:55.061Z,3.35
2022-09-06T00:49:27.249Z,3.33
2022-09-06T00:52:00.835Z,3.10
2022-09-06T00:54:32.792Z,2.90
2022-09-06T00:57:03.196Z,2.90
2022-09-06T00:59:36.547Z,3.22
2022-09-06T01:02:07.284Z,3.00
2022-09-06T01:04:39.651Z,3.65
2022-09-06T01:07:20.440Z,3.03
2022-09-06T01:10:07.512Z,2.60
2022-09-06T01:12:47.836Z,3.15
2022-09-06T01:15:30.023Z,2.78
2022-09-06T01:18:14.104Z,3.00
2022-09-06T01:20:54.306Z,2.90
2022-09-06T01:24:08.007Z,3.05
2022-09-06T01:27:12.799Z,2.92
2022-09-06T01:29:49.463Z,3.30
2022-09-06T01:32:27.530Z,2.97
2022-09-06T01:35:06.933Z,2.97
2022-09-06T01:37:37.433Z,2.85
2022-09-06T01:40:08.731Z,3.30
2022-09-06T01:42:41.632Z,2.90
2022-09-06T01:45:17.168Z,2.78
2022-09-06T01:47:55.924Z,3.35
2022-09-06T01:50:38.344Z,2.92
2022-09-06T01:53:17.955Z,3.17
2022-09-06T01:55:55.882Z,3.47
2022-09-06T01:58:42.243Z,2.97
2022-09-06T02:01:21.775Z,3.10
2022-09-06T02:03:59.466Z,3.47
2022-09-06T02:06:32.016Z,3.60
2022-09-06T02:09:07.667Z,3.28
2022-09-06T02:11:43.148Z,3.20
2022-09-06T02:14:19.953Z,3.65
2022-09-06T02:16:55.042Z,4.45
2022-09-06T02:19:32.948Z,4.05
2022-09-06T02:22:06.475Z,3.17
2022-09-06T02:24:40.775Z,3.35
2022-09-06T02:27:10.792Z,3.50
2022-09-06T02:29:40.802Z,3.05
2022-09-06T02:32:18.937Z,2.95
2022-09-06T02:34:49.265Z,3.00
2022-09-06T02:37:20.548Z,3.85
2022-09-06T02:39:50.541Z,3.55
2022-09-06T02:42:20.491Z,2.90
2022-09-06T02:44:50.565Z,2.88
2022-09-06T02:47:21.832Z,3.03
2022-09-06T02:49:51.739Z,3.60
2022-09-06T02:52:21.926Z,3.38
2022-09-06T02:54:51.991Z,3.45
2022-09-06T02:57:21.903Z,3.40
2022-09-06T02:59:52.079Z,2.97
2022-09-06T03:02:23.423Z,4.30
2022-09-06T03:04:53.595Z,3.42
2022-09-06T03:07:23.459Z,3.38
2022-09-06T03:09:53.553Z,3.20
2022-09-06T03:12:23.717Z,3.85
2022-09-06T03:14:55.144Z,3.33
2022-09-06T03:17:27.367Z,3.25
2022-09-06T03:19:57.738Z,3.10
2022-09-06T03:22:27.689Z,3.22
2022-09-06T03:24:57.607Z,3.40
2022-09-06T03:27:27.568Z,3.67
2022-09-06T03:29:57.825Z,3.83
2022-09-06T03:32:29.207Z,3.95
2022-09-06T03:35:00.551Z,3.63
2022-09-06T03:37:30.532Z,3.00
2022-09-06T03:40:00.906Z,3.10
2022-09-06T03:42:30.900Z,3.55
2022-09-06T03:45:02.751Z,3.15
2022-09-06T03:47:34.247Z,3.88
2022-09-06T03:50:04.323Z,3.05
2022-09-06T03:52:34.511Z,3.45
2022-09-06T03:55:05.274Z,3.67
2022-09-06T03:57:35.475Z,4.20
2022-09-06T04:00:06.183Z,3.60
2022-09-06T04:02:38.190Z,4.05
2022-09-06T04:05:08.848Z,3.58
2022-09-06T04:07:38.804Z,4.43
2022-09-06T04:10:09.351Z,5.53
2022-09-06T04:12:39.375Z,4.00
2022-09-06T04:15:10.930Z,4.72
2022-09-06T04:17:45.272Z,4.82
2022-09-06T04:20:15.923Z,5.00
2022-09-06T04:22:45.765Z,4.95
2022-09-06T04:25:15.992Z,5.40
2022-09-06T04:27:46.059Z,5.45
2022-09-06T04:30:15.949Z,4.80
2022-09-06T04:32:47.401Z,4.70
2022-09-06T04:35:17.508Z,4.50
2022-09-06T04:37:47.331Z,4.18
2022-09-06T04:40:17.384Z,4.55
2022-09-06T04:42:47.292Z,4.93
2022-09-06T04:45:17.246Z,5.13
2022-09-06T04:47:50.404Z,5.40
2022-09-06T04:50:20.485Z,4.90
2022-09-06T04:52:50.367Z,5.07
2022-09-06T04:55:20.524Z,5.35
2022-09-06T04:57:51.308Z,5.13
2022-09-06T05:00:21.571Z,5.60
2022-09-06T05:02:52.773Z,5.50
2022-09-06T05:05:23.470Z,7.10
2022-09-06T05:07:54.152Z,6.22
2022-09-06T05:10:24.778Z,6.30
2022-09-06T05:12:55.808Z,5.95
2022-09-06T05:15:26.505Z,5.82
2022-09-06T05:18:04.994Z,6.43
2022-09-06T05:20:35.135Z,6.05
2022-09-06T05:23:05.002Z,6.80
2022-09-06T05:25:35.059Z,5.78
2022-09-06T05:28:05.065Z,5.38
2022-09-06T05:30:36.035Z,5.68
2022-09-06T05:33:07.587Z,5.72
2022-09-06T05:35:37.844Z,6.55
2022-09-06T05:38:07.887Z,5.22
2022-09-06T05:40:37.901Z,4.97
2022-09-06T05:43:07.878Z,5.70
2022-09-06T05:45:37.989Z,6.22
2022-09-06T05:48:09.761Z,5.53
2022-09-06T05:50:39.786Z,5.95
2022-09-06T05:53:10.216Z,4.80
2022-09-06T05:55:42.861Z,5.03
2022-09-06T05:58:13.128Z,5.30
2022-09-06T06:00:43.686Z,5.68
2022-09-06T06:03:14.859Z,6.13
2022-09-06T06:05:47.903Z,5.95
2022-09-06T06:08:17.804Z,6.78
2022-09-06T06:10:47.703Z,5.97
2022-09-06T06:13:17.623Z,7.85
2022-09-06T06:15:47.581Z,5.35
2022-09-06T06:18:19.983Z,4.50
2022-09-06T06:20:50.647Z,4.90
2022-09-06T06:23:20.560Z,4.88
2022-09-06T06:25:50.759Z,5.07
2022-09-06T06:28:20.740Z,5.55
2022-09-06T06:30:51.129Z,4.65
2022-09-06T06:33:22.431Z,4.03
2022-09-06T06:36:00.103Z,4.53
2022-09-06T06:38:33.790Z,4.00
2022-09-06T06:41:06.807Z,3.67
2022-09-06T06:43:38.722Z,3.63
2022-09-06T06:46:10.561Z,3.85
2022-09-06T06:48:43.410Z,3.60
2022-09-06T06:51:15.755Z,3.70
2022-09-06T06:53:47.527Z,3.67
2022-09-06T06:56:20.207Z,4.22
2022-09-06T06:58:52.476Z,4.18
2022-09-06T07:01:24.270Z,3.40
2022-09-06T07:03:55.988Z,3.88
2022-09-06T07:09:19.388Z,3.33
2022-09-06T07:11:50.011Z,3.58
2022-09-06T07:14:20.451Z,3.75
2022-09-06T07:16:51.837Z,4.40
2022-09-06T07:22:13.761Z,3.53
2022-09-06T07:24:43.947Z,4.13
2022-09-06T07:30:03.886Z,3.83
2022-09-06T07:32:35.817Z,3.30
2022-09-06T07:35:08.338Z,3.67
2022-09-06T07:37:38.312Z,4.15
2022-09-06T07:40:09.847Z,4.03
2022-09-06T07:42:39.804Z,3.67
2022-09-06T07:45:10.858Z,6.20
2022-09-06T07:53:30.827Z,4.03
2022-09-06T07:58:32.174Z,3.42
2022-09-06T08:01:28.338Z,4.00
2022-09-06T08:04:00.599Z,3.90
2022-09-06T08:09:24.077Z,3.85
2022-09-06T08:11:54.142Z,3.67
2022-09-06T08:14:24.260Z,3.47
2022-09-06T08:16:56.544Z,3.92
2022-09-06T08:19:27.016Z,4.38
2022-09-06T08:21:58.229Z,3.72
2022-09-06T08:24:28.200Z,3.75
2022-09-06T08:26:58.239Z,3.70
2022-09-06T08:29:28.366Z,4.10
2022-09-06T08:31:58.778Z,4.15
2022-09-06T08:34:28.824Z,3.72
2022-09-06T08:37:00.361Z,3.90
2022-09-06T08:39:30.414Z,3.88
2022-09-06T08:42:04.136Z,3.97
2022-09-06T08:47:27.894Z,3.93
2022-09-06T08:50:03.331Z,4.13
2022-09-06T08:53:18.081Z,4.72
2022-09-06T08:55:55.961Z,4.65
2022-09-06T08:58:44.449Z,3.95
2022-09-06T09:01:19.183Z,3.70
2022-09-06T09:03:49.085Z,4.68
2022-09-06T09:06:19.413Z,3.90
2022-09-06T09:09:01.686Z,4.28
2022-09-06T09:11:33.541Z,4.00
2022-09-06T09:14:07.123Z,4.30
2022-09-06T09:16:37.327Z,3.97
2022-09-06T09:19:09.438Z,3.80
2022-09-06T09:21:41.585Z,3.30
2022-09-06T09:24:15.584Z,3.40
2022-09-06T09:26:51.987Z,4.22
2022-09-06T09:29:27.443Z,4.57
2022-09-06T09:31:58.970Z,4.00
2022-09-06T09:34:33.376Z,4.47
2022-09-06T09:40:06.981Z,5.78
2022-09-06T09:42:38.574Z,6.88
2022-09-06T09:45:25.052Z,5.30
2022-09-06T09:47:55.220Z,4.05
2022-09-06T09:50:29.009Z,4.15
2022-09-06T09:53:09.015Z,5.05
2022-09-06T09:55:41.202Z,4.30
2022-09-06T09:58:22.672Z,4.18
2022-09-06T10:01:10.951Z,4.15
2022-09-06T10:09:22.927Z,4.63
2022-09-06T10:12:00.005Z,4.05
2022-09-06T10:14:32.968Z,4.93
2022-09-06T10:17:02.796Z,4.00
2022-09-06T10:19:40.907Z,4.10
2022-09-06T10:22:23.424Z,4.10
2022-09-06T10:25:24.393Z,4.28
2022-09-06T10:28:29.543Z,4.05
2022-09-06T10:31:47.626Z,4.43
2022-09-06T10:34:52.856Z,4.38
2022-09-06T10:37:37.640Z,3.65
2022-09-06T10:40:10.314Z,4.35
2022-09-06T10:42:45.242Z,4.30
2022-09-06T10:45:28.452Z,4.85
2022-09-06T10:48:03.102Z,4.18
2022-09-06T10:50:42.672Z,4.43
2022-09-06T10:53:19.023Z,4.45
2022-09-06T10:55:54.024Z,3.70
2022-09-06T11:01:34.273Z,3.20
2022-09-06T11:06:46.547Z,4.80
2022-09-06T11:11:54.722Z,4.38
2022-09-06T11:14:28.539Z,4.15
2022-09-06T11:17:05.086Z,4.40
2022-09-06T11:19:44.264Z,4.47
2022-09-06T11:22:40.626Z,4.40
2022-09-06T11:25:54.974Z,3.50
2022-09-06T11:28:33.599Z,3.85
2022-09-06T11:31:05.240Z,3.97
2022-09-06T11:33:39.875Z,3.63
2022-09-06T11:36:31.310Z,4.28
2022-09-06T11:39:03.432Z,5.28
2022-09-06T11:41:35.969Z,4.63
2022-09-06T11:44:06.715Z,3.97
2022-09-06T11:46:58.877Z,5.53
2022-09-06T11:49:37.320Z,4.57
2022-09-06T11:52:59.422Z,4.97
2022-09-06T11:55:38.489Z,4.22
2022-09-06T11:58:21.405Z,4.75
2022-09-06T12:01:24.790Z,5.70
2022-09-06T12:04:10.429Z,3.83
2022-09-06T12:06:44.094Z,4.22
2022-09-06T12:09:34.474Z,3.38
2022-09-06T12:12:05.002Z,3.80
2022-09-06T12:14:40.807Z,3.10
2022-09-06T12:17:28.916Z,3.92
2022-09-06T12:20:06.797Z,3.72
2022-09-06T12:23:05.739Z,4.45
2022-09-06T12:25:58.899Z,3.72
2022-09-06T12:28:34.752Z,3.65
2022-09-06T12:31:34.351Z,4.45
2022-09-06T12:34:10.133Z,3.45
2022-09-06T12:36:50.721Z,3.63
2022-09-06T12:39:22.379Z,4.45
2022-09-06T12:41:56.087Z,4.28
2022-09-06T12:47:05.824Z,3.85
2022-09-06T12:49:35.883Z,3.70
2022-09-06T12:52:10.835Z,3.72
2022-09-06T12:54:48.067Z,3.58
2022-09-06T12:57:22.804Z,3.80
2022-09-06T12:59:54.832Z,3.55
2022-09-06T13:02:33.617Z,3.83
2022-09-06T13:05:07.154Z,4.30
2022-09-06T13:07:42.212Z,3.97
2022-09-06T13:10:16.276Z,4.07
2022-09-06T13:12:50.480Z,4.25
2022-09-06T13:15:25.150Z,4.03
2022-09-06T13:17:56.719Z,4.40
2022-09-06T13:20:29.484Z,4.38
2022-09-06T13:23:11.640Z,4.00
2022-09-06T13:25:50.826Z,4.85
2022-09-06T13:28:28.924Z,39.67
2022-09-06T13:31:11.206Z,31.08
2022-09-06T13:33:42.992Z,13.45
2022-09-06T13:36:23.906Z,7.40
2022-09-06T13:38:53.815Z,11.15
2022-09-06T13:41:40.711Z,5.30
2022-09-06T13:44:31.385Z,8.10
2022-09-06T13:47:01.264Z,7.60
2022-09-06T13:49:31.504Z,4.28
2022-09-06T13:52:03.113Z,4.50
2022-09-06T13:54:34.145Z,5.47
2022-09-06T13:57:05.571Z,9.48
2022-09-06T13:59:35.523Z,4.72
2022-09-06T14:02:08.409Z,19.90
2022-09-06T14:04:38.840Z,23.67
2022-09-06T14:07:09.019Z,14.45
2022-09-06T14:09:39.270Z,9.43
2022-09-06T14:12:41.703Z,4.13
2022-09-06T14:15:13.421Z,3.97
2022-09-06T14:17:43.766Z,4.53
2022-09-06T14:20:14.327Z,6.45
2022-09-06T14:22:44.359Z,5.07
2022-09-06T14:25:14.716Z,4.80
2022-09-06T14:27:48.551Z,7.72
2022-09-06T14:30:18.788Z,3.60
2022-09-06T14:32:48.531Z,3.97
2022-09-06T14:35:18.711Z,4.10
2022-09-06T14:37:50.894Z,4.00
2022-09-06T14:40:36.332Z,5.07
2022-09-06T14:43:07.661Z,8.30
2022-09-06T14:45:38.027Z,11.82
2022-09-06T14:48:08.078Z,11.27
2022-09-06T14:50:38.372Z,13.45
2022-09-06T14:53:39.819Z,5.28
2022-09-06T14:56:11.791Z,4.57
2022-09-06T14:58:43.909Z,5.38
2022-09-06T15:01:15.612Z,6.47
2022-09-06T15:03:48.668Z,6.57
2022-09-06T15:06:20.725Z,5.18
2022-09-06T15:08:52.845Z,5.80
2022-09-06T15:11:31.212Z,5.10
2022-09-06T15:14:04.289Z,5.93
2022-09-06T15:16:35.251Z,9.70
2022-09-06T15:19:05.627Z,10.85
2022-09-06T15:21:36.537Z,6.13
2022-09-06T15:24:11.704Z,6.22
2022-09-06T15:26:49.745Z,5.35
2022-09-06T15:29:23.952Z,3.90
2022-09-06T15:32:02.750Z,4.18
2022-09-06T15:34:35.551Z,3.15
2022-09-06T15:37:23.651Z,5.13
2022-09-06T15:40:13.171Z,3.78
2022-09-06T15:42:44.231Z,3.35
2022-09-06T15:45:15.836Z,3.30
2022-09-06T15:47:46.069Z,3.65
2022-09-06T15:50:29.102Z,3.75
2022-09-06T15:53:06.170Z,3.42
2022-09-06T15:55:53.443Z,4.07
2022-09-06T15:58:23.609Z,4.47
2022-09-06T16:01:07.139Z,5.47
2022-09-06T16:03:39.307Z,6.15
2022-09-06T16:06:27.995Z,6.13
2022-09-06T16:09:01.055Z,5.47
2022-09-06T16:11:32.735Z,5.35
2022-09-06T16:14:03.703Z,7.57
2022-09-06T16:16:35.942Z,3.83
2022-09-06T16:19:05.971Z,4.13
2022-09-06T16:21:39.065Z,3.92
2022-09-06T16:24:11.945Z,4.00
2022-09-06T16:26:46.145Z,3.13
2022-09-06T16:29:20.346Z,3.38
2022-09-06T16:31:56.674Z,2.92
2022-09-06T16:34:27.934Z,2.85
2022-09-06T16:36:58.283Z,3.58
2022-09-06T16:39:28.281Z,3.92
2022-09-06T16:41:58.429Z,3.83
2022-09-06T16:44:29.060Z,3.10
2022-09-06T16:47:03.986Z,2.97
2022-09-06T16:49:33.916Z,3.30
2022-09-06T16:52:04.321Z,2.80
2022-09-06T16:54:34.254Z,3.15
2022-09-06T16:57:04.591Z,3.25
2022-09-06T16:59:34.538Z,3.08
2022-09-06T17:02:06.746Z,3.15
2022-09-06T17:04:36.785Z,3.17
2022-09-06T17:07:07.144Z,3.47
2022-09-06T17:09:37.095Z,3.63
2022-09-06T17:12:07.592Z,3.50
2022-09-06T17:14:38.067Z,4.20
2022-09-06T17:17:10.075Z,2.85
2022-09-06T17:19:42.128Z,2.92
2022-09-06T17:22:13.440Z,3.58
2022-09-06T17:24:43.751Z,3.63
2022-09-06T17:27:13.863Z,2.65
2022-09-06T17:29:44.834Z,3.17
2022-09-06T17:32:16.305Z,3.50
2022-09-06T17:34:46.267Z,2.55
2022-09-06T17:37:16.481Z,3.08
2022-09-06T17:39:46.463Z,3.00
2022-09-06T17:42:16.875Z,3.50
2022-09-06T17:44:46.904Z,2.10
2022-09-06T17:47:19.406Z,3.30
2022-09-06T17:49:49.688Z,2.20
2022-09-06T17:52:19.730Z,2.20
2022-09-06T17:54:49.784Z,2.10
2022-09-06T17:57:20.125Z,2.10
2022-09-06T17:59:50.405Z,2.42
2022-09-06T18:02:21.964Z,2.05
2022-09-06T18:04:52.258Z,1.98
2022-09-06T18:07:22.457Z,1.77
2022-09-06T18:09:52.518Z,2.47
2022-09-06T18:12:22.925Z,2.15
2022-09-06T18:14:53.494Z,2.22
2022-09-06T18:17:25.115Z,4.10
2022-09-06T18:19:55.904Z,3.30
2022-09-06T18:22:26.001Z,2.65
2022-09-06T18:24:58.345Z,2.72
2022-09-06T18:27:28.467Z,2.38
2022-09-06T18:29:58.527Z,2.05
2022-09-06T18:32:30.345Z,2.80
2022-09-06T18:35:00.662Z,2.75
2022-09-06T18:37:31.019Z,2.58
2022-09-06T18:40:01.522Z,2.60
2022-09-06T18:42:31.933Z,2.33
2022-09-06T18:45:02.084Z,2.17
2022-09-06T18:47:33.706Z,2.25
2022-09-06T18:50:05.218Z,2.05
2022-09-06T18:52:35.406Z,2.42
2022-09-06T18:55:08.544Z,2.58
2022-09-06T18:57:38.638Z,2.33
2022-09-06T19:00:10.391Z,2.25
2022-09-06T19:02:42.361Z,1.77
2022-09-06T19:05:13.964Z,1.60
2022-09-06T19:07:46.041Z,2.20
2022-09-06T19:10:16.259Z,1.98
2022-09-06T19:12:51.323Z,1.90
2022-09-06T19:15:24.111Z,2.20
2022-09-06T19:17:57.369Z,2.10
2022-09-06T19:20:27.646Z,1.73
2022-09-06T19:22:58.121Z,1.80
2022-09-06T19:25:28.965Z,2.63
2022-09-06T19:27:59.310Z,2.05
2022-09-06T19:30:30.052Z,2.17
2022-09-06T19:33:02.588Z,2.25
2022-09-06T19:35:43.739Z,1.80
2022-09-06T19:38:26.135Z,1.65
2022-09-06T19:41:03.046Z,2.40
2022-09-06T19:43:33.939Z,2.03
2022-09-06T19:46:04.990Z,2.08
2022-09-06T19:48:38.567Z,2.13
2022-09-06T19:51:12.799Z,2.40
2022-09-06T19:53:44.354Z,2.00
2022-09-06T19:56:17.018Z,1.92
2022-09-06T19:58:47.191Z,2.10
2022-09-06T20:01:20.630Z,2.15
2022-09-06T20:03:53.024Z,2.20
2022-09-06T20:06:23.650Z,2.10
2022-09-06T20:08:59.453Z,1.88
2022-09-06T20:11:33.371Z,2.00
2022-09-06T20:14:03.805Z,1.98
2022-09-06T20:16:37.100Z,2.00
2022-09-06T20:19:14.573Z,1.85
2022-09-06T20:21:44.779Z,2.60
2022-09-06T20:24:14.686Z,2.50
2022-09-06T20:26:44.635Z,2.15
2022-09-06T20:29:14.529Z,2.60
2022-09-06T20:31:44.606Z,1.98
2022-09-06T20:34:19.482Z,2.10
2022-09-06T20:36:50.035Z,1.95
2022-09-06T20:39:20.011Z,2.25
2022-09-06T20:41:49.904Z,2.25
2022-09-06T20:44:19.841Z,1.80
2022-09-06T20:46:49.901Z,2.15
2022-09-06T20:49:23.120Z,2.03
2022-09-06T20:52:11.184Z,2.10
2022-09-06T20:54:41.347Z,1.98
2022-09-06T20:57:12.295Z,1.77
2022-09-06T20:59:42.378Z,2.50
2022-09-06T21:02:12.368Z,2.10
2022-09-06T21:04:43.756Z,2.40
2022-09-06T21:07:14.394Z,2.50
2022-09-06T21:09:44.338Z,2.35
2022-09-06T21:12:14.315Z,2.42
2022-09-06T21:14:44.492Z,1.60
2022-09-06T21:17:15.013Z,2.00
2022-09-06T21:19:46.554Z,2.60
2022-09-06T21:22:18.129Z,1.92
2022-09-06T21:24:48.906Z,2.42
2022-09-06T21:27:18.917Z,1.80
2022-09-06T21:29:48.987Z,2.15
2022-09-06T21:32:18.927Z,2.40
2022-09-06T21:34:50.282Z,2.05
2022-09-06T21:37:21.292Z,2.85
2022-09-06T21:39:51.216Z,3.42
2022-09-06T21:42:21.201Z,2.63
2022-09-06T21:44:51.091Z,2.30
2022-09-06T21:47:21.162Z,2.40
2022-09-06T21:49:52.452Z,2.35
2022-09-06T21:52:22.415Z,2.53
2022-09-06T21:54:52.327Z,2.17
2022-09-06T21:57:22.301Z,2.90
2022-09-06T21:59:52.427Z,2.40
2022-09-06T22:02:23.672Z,2.47
2022-09-06T22:04:55.171Z,2.47
2022-09-06T22:07:25.270Z,1.88
2022-09-06T22:09:56.093Z,2.63
2022-09-06T22:12:26.078Z,2.83
2022-09-06T22:14:56.676Z,2.25
2022-09-06T22:17:26.781Z,2.13
2022-09-06T22:19:58.249Z,1.98
2022-09-06T22:22:28.470Z,2.22
2022-09-06T22:24:58.490Z,2.05
2022-09-06T22:27:28.471Z,1.75
2022-09-06T22:29:58.453Z,2.47
2022-09-06T22:32:28.479Z,1.70
2022-09-06T22:34:59.917Z,1.90
2022-09-06T22:37:29.938Z,2.25
2022-09-06T22:40:02.109Z,2.38
2022-09-06T22:42:32.256Z,2.25
2022-09-06T22:45:03.674Z,2.53
2022-09-06T22:47:33.937Z,2.60
2022-09-06T22:50:06.834Z,2.20
2022-09-06T22:52:36.760Z,2.00
2022-09-06T22:55:07.679Z,2.33
2022-09-06T22:57:37.680Z,2.22
2022-09-06T23:00:09.310Z,2.40
2022-09-06T23:02:39.268Z,2.30
2022-09-06T23:05:10.914Z,2.20
2022-09-06T23:07:43.409Z,2.00
2022-09-06T23:10:13.375Z,2.58
2022-09-06T23:12:43.395Z,2.63
2022-09-06T23:15:14.039Z,2.60
2022-09-06T23:17:45.624Z,2.60
2022-09-06T23:20:17.499Z,2.75
2022-09-06T23:22:48.316Z,2.28
2022-09-06T23:25:18.456Z,2.60
2022-09-06T23:27:48.880Z,2.58
2022-09-06T23:30:19.112Z,2.17
2022-09-06T23:32:49.170Z,2.42
2022-09-06T23:35:20.589Z,2.30
2022-09-06T23:37:51.240Z,2.60
2022-09-06T23:40:21.761Z,2.22
2022-09-06T23:42:51.784Z,2.38
2022-09-06T23:45:21.799Z,2.92
2022-09-06T23:47:51.848Z,2.78
2022-09-06T23:50:23.336Z,2.67
2022-09-06T23:52:53.274Z,2.08
2022-09-06T23:55:24.690Z,2.70
2022-09-06T23:57:54.695Z,2.00
